Appleton, WI (54915)

3:56 PM CDT on September 22, 2014 (GMT -0500)
WB9KMW NW Appleton | Change Station
CLOSE
Current Station
Personal Weather Station
Location: Appleton, WI
Elevation: 810 ft
Nearby Weather Stations

Elev 810 ft 44.31 °N, 88.47 °W | Updated 5 minutes ago

Mostly Cloudy
Mostly Cloudy
67.5 °F
Feels Like 67.5 °F
N
3.7
Wind Variable Wind from West

Today
High -- | Low -- °F
--% Chance of Precip.
Yesterday
High -- | Low -- °F
Precip. -- in
6:40 AM 6:51 PM
Waning Crescent, 2% visible
Pressure 30.19 in
Visibility 10.0 miles
Clouds Mostly Cloudy 4700 ft
Dew Point 53 °F
Humidity 60%
Rainfall 0.00 in
Snow Depth Not available.
UV 2 out of 12
Pollen 3.70 out of 12
PM2.5 Good
Flu Activity Not available.
METAR KATW 222045Z 27011KT 10SM BKN047 19/08 A3019

More Conditions Fewer Conditions

Pressure 30.19 in
Visibility 10.0 miles
Clouds Mostly Cloudy 4700 ft
Dew Point 53 °F
Humidity 60%
Rainfall 0.00 in
Snow Depth Not available.
UV 2 out of 12
Pollen 3.70 out of 12
PM2.5 Good
Flu Activity Not available.
METAR KATW 222045Z 27011KT 10SM BKN047 19/08 A3019

More Conditions Fewer Conditions

10-Day Weather Forecast

Almanac

Astronomy

Sep. 22, 2014 Rise Set
Actual Time 6:40 AM CDT 6:51 PM CDT
Civil Twilight 6:11 AM CDT 7:20 PM CDT
Nautical Twilight 5:37 AM CDT 7:53 PM CDT
Astronomical Twilight 5:03 AM CDT 8:28 PM CDT
Moon 5:07 AM CDT 6:00 PM CDT
Length of Visible Light 13h 08m
Length of Day
12h 10m
Tomorrow will be 3m 2s shorter.
Waning Crescent, 2% of the Moon is Illuminated
Today
Waning Crescent
Sep 24
New
Oct 1
First Quarter
Oct 8
Full
Oct 15
Last Quarter

Today's Extremes

State Highs State Lows

Community

WunderPhotos

Upload Photos

1,755,522 photos uploaded!

WunderBlogs® & News

Nearby

Air Quality

  Air Quality AQ Index Pollutant
Yesterday Good
OZONE
Current Good
PM2.5
Monday Good
OZONE
Monday Good
PM2.5
Tuesday Good
OZONE
Tuesday Good
PM2.5
Wednesday Good
OZONE
Wednesday Good
PM2.5
Thursday Moderate
OZONE
Thursday Moderate
PM2.5
Friday Moderate
OZONE
Friday Moderate
PM2.5
Saturday Moderate
OZONE
Saturday Moderate
PM2.5

Snow Depth

Station Depth Elevation
No new snow has been reported.

Earthquake Activity

City Distance Mag. Time & Date
No recent earthquake activity has been reported nearby.
Minimum magnitude displayed is 2.5.

Coastal Water Temperatures

Place Temperature
Menominee, MI 60.1 °F

Nearby Weather Stations